createdAt,value
2022-11-12T00:00:53.075Z,7.82
2022-11-12T00:03:20.313Z,8.60
2022-11-12T00:05:49.654Z,8.63
2022-11-12T00:08:17.043Z,8.13
2022-11-12T00:10:44.376Z,8.43
2022-11-12T00:13:11.575Z,7.90
2022-11-12T00:15:38.472Z,7.97
2022-11-12T00:18:05.444Z,8.27
2022-11-12T00:20:32.235Z,8.17
2022-11-12T00:22:59.060Z,8.03
2022-11-12T00:25:25.825Z,7.37
2022-11-12T00:27:52.916Z,7.87
2022-11-12T00:30:19.786Z,8.13
2022-11-12T00:32:46.479Z,7.38
2022-11-12T00:35:14.132Z,7.60
2022-11-12T00:37:41.351Z,7.80
2022-11-12T00:40:09.023Z,8.80
2022-11-12T00:42:35.894Z,8.50
2022-11-12T00:45:02.765Z,8.70
2022-11-12T00:47:29.559Z,8.73
2022-11-12T00:49:56.458Z,10.53
2022-11-12T00:52:23.249Z,8.70
2022-11-12T00:54:49.931Z,8.20
2022-11-12T00:57:16.742Z,7.90
2022-11-12T00:59:43.539Z,7.83
2022-11-12T01:02:10.251Z,8.27
2022-11-12T01:04:37.067Z,8.77
2022-11-12T01:07:03.825Z,8.43
2022-11-12T01:09:30.540Z,9.00
2022-11-12T01:11:57.364Z,8.60
2022-11-12T01:14:24.230Z,8.10
2022-11-12T01:16:50.993Z,8.07
2022-11-12T01:19:18.381Z,7.80
2022-11-12T01:21:45.143Z,8.27
2022-11-12T01:24:12.191Z,8.50
2022-11-12T01:26:39.357Z,7.87
2022-11-12T01:29:06.166Z,11.30
2022-11-12T01:31:38.413Z,9.37
2022-11-12T01:34:07.898Z,8.17
2022-11-12T01:36:38.693Z,9.10
2022-11-12T01:39:08.213Z,8.03
2022-11-12T01:41:38.668Z,8.25
2022-11-12T01:44:31.404Z,8.20
2022-11-12T01:46:58.185Z,7.83
2022-11-12T01:49:52.337Z,8.17
2022-11-12T01:52:32.125Z,7.47
2022-11-12T01:55:04.883Z,7.90
2022-11-12T01:57:37.176Z,7.80
2022-11-12T02:00:09.346Z,7.70
2022-11-12T02:02:37.115Z,8.27
2022-11-12T02:05:07.451Z,8.57
2022-11-12T02:07:39.657Z,8.10
2022-11-12T02:10:07.968Z,8.10
2022-11-12T02:12:53.791Z,8.20
2022-11-12T02:15:20.523Z,10.87
2022-11-12T02:17:47.295Z,8.80
2022-11-12T02:20:15.124Z,9.13
2022-11-12T02:22:41.928Z,8.10
2022-11-12T02:25:18.902Z,8.67
2022-11-12T02:27:46.032Z,8.07
2022-11-12T02:30:13.392Z,8.87
2022-11-12T02:32:40.236Z,8.30
2022-11-12T02:35:07.488Z,7.87
2022-11-12T02:37:34.174Z,8.00
2022-11-12T02:40:01.023Z,7.97
2022-11-12T02:42:27.838Z,7.80
2022-11-12T02:44:54.602Z,8.20
2022-11-12T02:47:21.458Z,8.20
2022-11-12T02:49:48.142Z,7.83
2022-11-12T02:52:14.831Z,8.30
2022-11-12T02:54:41.638Z,7.90
2022-11-12T02:57:08.345Z,7.67
2022-11-12T02:59:35.041Z,10.50
2022-11-12T03:02:01.871Z,8.50
2022-11-12T03:04:28.593Z,8.40
2022-11-12T03:06:55.305Z,8.10
2022-11-12T03:09:22.152Z,8.33
2022-11-12T03:11:48.849Z,7.50
2022-11-12T03:14:15.588Z,7.60
2022-11-12T03:16:42.365Z,7.97
2022-11-12T03:19:09.220Z,7.73
2022-11-12T03:21:35.931Z,7.90
2022-11-12T03:24:02.803Z,7.83
2022-11-12T03:26:34.536Z,8.40
2022-11-12T03:29:02.497Z,8.00
2022-11-12T03:31:29.396Z,8.10
2022-11-12T03:33:59.330Z,7.93
2022-11-12T03:36:26.043Z,8.50
2022-11-12T03:38:52.871Z,7.60
2022-11-12T03:41:19.580Z,7.70
2022-11-12T03:43:46.701Z,8.00
2022-11-12T03:46:13.779Z,7.63
2022-11-12T03:48:40.466Z,7.70
2022-11-12T03:51:07.176Z,8.73
2022-11-12T03:53:34.173Z,8.13
2022-11-12T03:56:00.910Z,8.27
2022-11-12T03:58:27.848Z,8.30
2022-11-12T04:00:54.844Z,7.93
2022-11-12T04:03:21.735Z,8.27
2022-11-12T04:06:07.577Z,7.90
2022-11-12T04:08:37.484Z,7.87
2022-11-12T04:11:12.752Z,8.88
2022-11-12T04:13:42.185Z,8.53
2022-11-12T04:16:32.272Z,8.50
2022-11-12T04:19:19.419Z,7.75
2022-11-12T04:21:52.343Z,7.60
2022-11-12T04:24:45.360Z,8.17
2022-11-12T04:27:16.743Z,7.70
2022-11-12T04:30:02.820Z,7.77
2022-11-12T04:32:30.779Z,7.33
2022-11-12T04:34:58.273Z,8.17
2022-11-12T04:37:27.088Z,7.17
2022-11-12T04:39:53.944Z,7.57
2022-11-12T04:42:39.624Z,7.47
2022-11-12T04:45:09.421Z,7.53
2022-11-12T04:47:39.167Z,7.50
2022-11-12T04:50:14.812Z,7.40
2022-11-12T04:52:41.767Z,7.50
2022-11-12T04:55:09.323Z,7.00
2022-11-12T04:57:36.573Z,7.00
2022-11-12T05:00:05.241Z,6.70
2022-11-12T05:02:31.933Z,7.47
2022-11-12T05:04:58.778Z,6.90
2022-11-12T05:07:25.479Z,7.47
2022-11-12T05:09:52.287Z,7.20
2022-11-12T05:12:19.097Z,6.80
2022-11-12T05:14:45.812Z,6.80
2022-11-12T05:17:12.597Z,6.83
2022-11-12T05:19:39.485Z,6.90
2022-11-12T05:22:06.278Z,7.30
2022-11-12T05:24:42.520Z,6.93
2022-11-12T05:27:20.774Z,7.30
2022-11-12T05:29:47.618Z,6.30
2022-11-12T05:32:16.066Z,7.77
2022-11-12T05:34:42.922Z,7.10
2022-11-12T05:37:11.452Z,7.10
2022-11-12T05:39:38.573Z,7.00
2022-11-12T05:42:13.064Z,7.13
2022-11-12T05:44:41.035Z,7.83
2022-11-12T05:47:07.911Z,7.17
2022-11-12T05:49:34.636Z,7.47
2022-11-12T05:52:01.510Z,7.07
2022-11-12T05:54:28.258Z,6.97
2022-11-12T05:56:54.967Z,6.93
2022-11-12T05:59:22.518Z,7.40
2022-11-12T06:01:49.453Z,7.10
2022-11-12T06:04:16.904Z,6.93
2022-11-12T06:06:44.522Z,7.83
2022-11-12T06:09:11.877Z,6.97
2022-11-12T06:11:39.119Z,7.10
2022-11-12T06:14:06.095Z,7.20
2022-11-12T06:16:33.432Z,7.93
2022-11-12T06:19:00.582Z,7.97
2022-11-12T06:21:27.946Z,6.93
2022-11-12T06:23:57.964Z,6.80
2022-11-12T06:26:26.610Z,6.90
2022-11-12T06:28:53.669Z,6.67
2022-11-12T06:31:21.712Z,7.00
2022-11-12T06:33:49.158Z,7.60
2022-11-12T06:36:18.537Z,7.30
2022-11-12T06:38:45.703Z,7.63
2022-11-12T06:41:14.251Z,7.70
2022-11-12T06:43:41.409Z,8.00
2022-11-12T06:46:14.344Z,7.03
2022-11-12T06:48:41.383Z,7.20
2022-11-12T06:51:17.742Z,7.90
2022-11-12T06:53:45.014Z,7.57
2022-11-12T06:56:12.613Z,7.60
2022-11-12T06:58:39.991Z,7.67
2022-11-12T07:01:12.416Z,7.03
2022-11-12T07:03:41.018Z,7.47
2022-11-12T07:06:10.085Z,7.43
2022-11-12T07:08:37.693Z,7.10
2022-11-12T07:11:05.290Z,7.30
2022-11-12T07:13:33.587Z,7.90
2022-11-12T07:16:01.425Z,7.60
2022-11-12T07:18:29.669Z,7.93
2022-11-12T07:21:04.421Z,8.67
2022-11-12T07:23:32.896Z,8.40
2022-11-12T07:26:14.324Z,8.00
2022-11-12T07:28:41.883Z,8.20
2022-11-12T07:31:12.018Z,8.40
2022-11-12T07:36:06.953Z,7.70
2022-11-12T07:38:36.793Z,11.33
2022-11-12T07:41:11.717Z,8.05
2022-11-12T07:43:39.792Z,7.20
2022-11-12T07:46:12.071Z,7.60
2022-11-12T07:48:40.143Z,7.87
2022-11-12T07:51:13.117Z,7.40
2022-11-12T07:53:40.667Z,7.50
2022-11-12T07:56:07.908Z,7.43
2022-11-12T07:58:35.919Z,8.40
2022-11-12T08:01:09.469Z,7.83
2022-11-12T08:03:36.807Z,7.90
2022-11-12T08:06:04.367Z,7.65
2022-11-12T08:08:31.051Z,7.68
2022-11-12T08:10:59.101Z,10.23
2022-11-12T08:13:26.114Z,11.25
2022-11-12T08:15:53.020Z,7.95
2022-11-12T08:18:19.860Z,7.85
2022-11-12T08:20:49.364Z,7.97
2022-11-12T08:23:16.116Z,9.05
2022-11-12T08:25:43.001Z,8.68
2022-11-12T08:28:09.739Z,10.90
2022-11-12T08:30:36.507Z,8.35
2022-11-12T08:33:05.789Z,9.45
2022-11-12T08:35:33.238Z,10.07
2022-11-12T08:38:01.595Z,9.23
2022-11-12T08:40:30.229Z,9.30
2022-11-12T08:43:05.444Z,8.55
2022-11-12T08:45:33.883Z,8.23
2022-11-12T08:48:19.115Z,8.00
2022-11-12T08:50:46.149Z,8.20
2022-11-12T08:53:14.370Z,8.63
2022-11-12T08:55:41.071Z,8.57
2022-11-12T08:58:08.412Z,8.57
2022-11-12T09:00:39.300Z,8.52
2022-11-12T09:03:07.862Z,11.45
2022-11-12T09:05:35.903Z,8.98
2022-11-12T09:08:05.753Z,11.48
2022-11-12T09:13:00.148Z,8.38
2022-11-12T09:15:37.302Z,8.60
2022-11-12T09:18:10.965Z,8.45
2022-11-12T09:20:37.779Z,9.43
2022-11-12T09:23:10.893Z,9.10
2022-11-12T09:25:38.279Z,8.65
2022-11-12T09:28:15.182Z,7.90
2022-11-12T09:30:47.561Z,10.60
2022-11-12T09:33:16.450Z,11.05
2022-11-12T09:35:43.859Z,9.18
2022-11-12T09:38:10.558Z,8.98
2022-11-12T09:40:54.385Z,8.38
2022-11-12T09:43:27.835Z,9.00
2022-11-12T09:46:21.492Z,9.52
2022-11-12T09:48:51.915Z,9.45
2022-11-12T09:51:31.514Z,9.95
2022-11-12T09:54:01.818Z,9.00
2022-11-12T09:56:29.921Z,8.77
2022-11-12T09:58:57.235Z,9.75
2022-11-12T10:01:36.303Z,8.13
2022-11-12T10:04:27.681Z,9.00
2022-11-12T10:07:04.345Z,8.75
2022-11-12T10:10:09.477Z,14.18
2022-11-12T10:12:38.985Z,9.45
2022-11-12T10:16:02.691Z,9.15
2022-11-12T10:18:29.681Z,8.57
2022-11-12T10:21:04.435Z,9.57
2022-11-12T10:23:43.978Z,12.77
2022-11-12T10:29:01.535Z,8.43
2022-11-12T10:31:28.413Z,8.75
2022-11-12T10:34:11.595Z,8.98
2022-11-12T10:36:40.582Z,9.73
2022-11-12T10:39:07.299Z,8.75
2022-11-12T10:41:34.599Z,8.93
2022-11-12T10:44:06.489Z,9.63
2022-11-12T10:46:36.448Z,9.95
2022-11-12T10:49:05.119Z,9.65
2022-11-12T10:51:37.187Z,10.02
2022-11-12T10:54:20.953Z,9.30
2022-11-12T10:56:55.019Z,9.73
2022-11-12T10:59:25.649Z,9.75
2022-11-12T11:01:59.243Z,9.82
2022-11-12T11:04:35.926Z,10.50
2022-11-12T11:07:16.440Z,9.80
2022-11-12T11:09:57.520Z,10.48
2022-11-12T11:12:30.669Z,9.70
2022-11-12T11:15:22.136Z,9.55
2022-11-12T11:17:49.217Z,11.00
2022-11-12T11:20:25.992Z,10.48
2022-11-12T11:22:59.029Z,10.98
2022-11-12T11:25:29.935Z,13.00
2022-11-12T11:28:26.970Z,11.95
2022-11-12T11:31:27.322Z,11.77
2022-11-12T11:34:09.314Z,12.77
2022-11-12T11:36:35.965Z,12.75
2022-11-12T11:39:30.598Z,12.43
2022-11-12T11:42:22.047Z,14.35
2022-11-12T11:45:24.871Z,13.45
2022-11-12T11:48:01.700Z,13.75
2022-11-12T11:50:33.958Z,12.80
2022-11-12T11:53:26.124Z,12.25
2022-11-12T11:56:14.293Z,8.18
2022-11-12T11:59:17.231Z,9.93
2022-11-12T12:02:11.500Z,8.23
2022-11-12T12:04:58.383Z,13.07
2022-11-12T12:07:56.249Z,12.27
2022-11-12T12:13:51.298Z,14.07
2022-11-12T12:16:29.571Z,14.98
2022-11-12T12:19:01.907Z,12.43
2022-11-12T12:21:32.181Z,12.60
2022-11-12T12:24:06.085Z,15.18
2022-11-12T12:26:57.565Z,12.93
2022-11-12T12:29:50.233Z,14.80
2022-11-12T12:32:40.452Z,13.43
2022-11-12T12:35:26.460Z,14.02
2022-11-12T12:38:07.878Z,13.65
2022-11-12T12:40:37.239Z,13.93
2022-11-12T12:43:44.066Z,13.60
2022-11-12T12:46:13.421Z,13.40
2022-11-12T12:48:46.310Z,13.38
2022-11-12T12:51:13.721Z,12.95
2022-11-12T12:53:40.801Z,11.60
2022-11-12T12:56:10.660Z,12.70
2022-11-12T12:58:45.093Z,12.73
2022-11-12T13:01:35.034Z,12.15
2022-11-12T13:04:04.783Z,11.07
2022-11-12T13:06:38.577Z,11.65
2022-11-12T13:09:20.783Z,10.52
2022-11-12T13:12:04.962Z,10.70
2022-11-12T13:14:34.291Z,12.50
2022-11-12T13:17:02.056Z,14.05
2022-11-12T13:19:55.692Z,12.73
2022-11-12T13:22:24.117Z,13.18
2022-11-12T13:25:06.049Z,12.33
2022-11-12T13:27:45.181Z,15.93
2022-11-12T13:30:16.489Z,12.85
2022-11-12T13:32:51.975Z,13.88
2022-11-12T13:35:18.804Z,12.15
2022-11-12T13:37:47.517Z,15.40
2022-11-12T13:40:30.921Z,14.10
2022-11-12T13:43:27.960Z,11.82
2022-11-12T13:46:06.865Z,12.00
2022-11-12T13:48:37.222Z,11.68
2022-11-12T13:51:17.074Z,11.63
2022-11-12T13:56:12.582Z,12.77
2022-11-12T13:58:44.301Z,12.60
2022-11-12T14:01:12.821Z,12.18
2022-11-12T14:03:46.039Z,14.43
2022-11-12T14:06:29.044Z,13.45
2022-11-12T14:09:01.297Z,13.85
2022-11-12T14:11:46.132Z,15.43
2022-11-12T14:14:32.402Z,12.77
2022-11-12T14:17:18.152Z,14.77
2022-11-12T14:19:47.896Z,13.52
2022-11-12T14:22:18.609Z,12.15
2022-11-12T14:24:48.225Z,15.65
2022-11-12T14:27:33.984Z,11.40
2022-11-12T14:30:17.840Z,11.60
2022-11-12T14:32:52.730Z,12.77
2022-11-12T14:35:27.619Z,11.55
2022-11-12T14:37:59.853Z,13.52
2022-11-12T14:40:30.809Z,11.68
2022-11-12T14:42:57.724Z,12.05
2022-11-12T14:45:25.050Z,10.90
2022-11-12T14:47:55.036Z,11.88
2022-11-12T14:50:34.564Z,11.23
2022-11-12T14:53:34.645Z,11.05
2022-11-12T14:56:03.628Z,10.60
2022-11-12T14:58:32.330Z,10.90
2022-11-12T15:00:59.526Z,10.25
2022-11-12T15:03:32.483Z,11.90
2022-11-12T15:06:11.432Z,13.30
2022-11-12T15:08:40.345Z,11.27
2022-11-12T15:11:25.000Z,9.63
2022-11-12T15:13:54.588Z,9.63
2022-11-12T15:16:25.801Z,9.80
2022-11-12T15:19:06.965Z,11.25
2022-11-12T15:21:34.336Z,11.02
2022-11-12T15:24:18.013Z,10.20
2022-11-12T15:26:47.347Z,11.02
2022-11-12T15:29:23.329Z,13.40
2022-11-12T15:32:23.987Z,10.88
2022-11-12T15:34:52.242Z,11.57
2022-11-12T15:37:18.948Z,15.25
2022-11-12T15:39:51.192Z,11.40
2022-11-12T15:42:25.828Z,10.25
2022-11-12T15:45:02.494Z,10.52
2022-11-12T15:47:29.821Z,12.07
2022-11-12T15:49:59.089Z,10.55
2022-11-12T15:52:25.807Z,10.20
2022-11-12T15:54:52.892Z,10.05
2022-11-12T15:57:32.179Z,10.18
2022-11-12T16:00:08.639Z,11.68
2022-11-12T16:02:35.805Z,11.13
2022-11-12T16:05:02.579Z,10.68
2022-11-12T16:07:29.421Z,9.15
2022-11-12T16:09:56.183Z,9.43
2022-11-12T16:12:23.040Z,9.98
2022-11-12T16:14:50.102Z,13.23
2022-11-12T16:17:18.684Z,8.98
2022-11-12T16:19:45.396Z,9.80
2022-11-12T16:22:15.215Z,9.90
2022-11-12T16:27:15.865Z,9.55
2022-11-12T16:29:42.598Z,9.77
2022-11-12T16:32:14.120Z,9.68
2022-11-12T16:34:41.101Z,10.43
2022-11-12T16:37:12.902Z,11.60
2022-11-12T16:39:39.816Z,11.10
2022-11-12T16:42:09.009Z,10.93
2022-11-12T16:44:35.699Z,10.73
2022-11-12T16:47:04.480Z,11.00
2022-11-12T16:49:35.909Z,10.95
2022-11-12T16:52:05.328Z,10.77
2022-11-12T16:54:32.047Z,11.15
2022-11-12T16:56:58.937Z,11.02
2022-11-12T16:59:25.648Z,11.05
2022-11-12T17:01:52.359Z,14.30
2022-11-12T17:04:19.228Z,11.88
2022-11-12T17:06:46.001Z,9.77
2022-11-12T17:09:12.937Z,10.98
2022-11-12T17:11:39.765Z,9.77
2022-11-12T17:14:06.888Z,9.88
2022-11-12T17:16:33.689Z,10.02
2022-11-12T17:19:04.323Z,12.45
2022-11-12T17:21:31.249Z,10.18
2022-11-12T17:23:58.202Z,14.75
2022-11-12T17:26:25.123Z,17.83
2022-11-12T17:28:59.172Z,13.57
2022-11-12T17:31:28.132Z,12.43
2022-11-12T17:33:54.832Z,13.85
2022-11-12T17:36:24.627Z,12.88
2022-11-12T17:38:59.441Z,15.55
2022-11-12T17:41:30.912Z,17.13
2022-11-12T17:43:59.895Z,12.20
2022-11-12T17:46:27.331Z,13.80
2022-11-12T17:48:55.606Z,11.77
2022-11-12T17:51:25.609Z,10.60
2022-11-12T17:56:22.191Z,10.80
2022-11-12T17:58:50.135Z,10.30
2022-11-12T18:01:28.000Z,13.30
2022-11-12T18:03:56.596Z,17.25
2022-11-12T18:06:26.373Z,17.33
2022-11-12T18:08:54.563Z,23.88
2022-11-12T18:11:22.274Z,28.40
2022-11-12T18:13:49.111Z,25.63
2022-11-12T18:16:19.409Z,19.88
2022-11-12T18:18:46.920Z,25.10
2022-11-12T18:21:14.311Z,38.30
2022-11-12T18:23:43.817Z,34.60
2022-11-12T18:26:15.495Z,15.00
2022-11-12T18:28:42.694Z,22.58
2022-11-12T18:31:12.381Z,26.80
2022-11-12T18:33:39.429Z,22.08
2022-11-12T18:36:10.218Z,27.55
2022-11-12T18:38:37.508Z,21.80
2022-11-12T18:41:08.759Z,25.60
2022-11-12T18:43:40.066Z,21.75
2022-11-12T18:46:08.559Z,20.42
2022-11-12T18:48:38.461Z,13.02
2022-11-12T18:51:07.915Z,13.27
2022-11-12T18:53:35.422Z,15.65
2022-11-12T18:56:08.099Z,16.33
2022-11-12T18:58:35.639Z,15.05
2022-11-12T19:01:16.172Z,18.10
2022-11-12T19:03:44.125Z,18.08
2022-11-12T19:06:14.966Z,25.52
2022-11-12T19:08:42.171Z,26.75
2022-11-12T19:11:14.605Z,23.80
2022-11-12T19:13:42.444Z,20.50
2022-11-12T19:16:14.582Z,19.33
2022-11-12T19:18:42.464Z,20.70
2022-11-12T19:21:14.697Z,18.45
2022-11-12T19:23:43.165Z,17.70
2022-11-12T19:26:17.532Z,20.00
2022-11-12T19:28:45.406Z,27.83
2022-11-12T19:31:20.584Z,21.42
2022-11-12T19:33:47.983Z,23.17
2022-11-12T19:36:25.718Z,28.50
2022-11-12T19:39:02.605Z,23.40
2022-11-12T19:41:29.547Z,25.88
2022-11-12T19:43:56.333Z,20.58
2022-11-12T19:46:23.100Z,24.90
2022-11-12T19:48:49.793Z,24.73
2022-11-12T19:51:16.535Z,30.02
2022-11-12T19:53:47.132Z,27.98
2022-11-12T19:56:17.380Z,30.08
2022-11-12T19:58:48.772Z,32.05
2022-11-12T20:01:18.119Z,32.20
2022-11-12T20:03:44.991Z,30.38
2022-11-12T20:06:15.885Z,30.00
2022-11-12T20:08:42.635Z,30.75
2022-11-12T20:11:10.221Z,30.55
2022-11-12T20:13:37.613Z,28.70
2022-11-12T20:16:13.521Z,30.08
2022-11-12T20:18:40.788Z,27.88
2022-11-12T20:21:09.343Z,25.02
2022-11-12T20:23:37.047Z,22.60
2022-11-12T20:26:10.043Z,25.20
2022-11-12T20:28:38.049Z,25.45
2022-11-12T20:31:11.507Z,22.10
2022-11-12T20:33:42.260Z,23.38
2022-11-12T20:36:15.310Z,21.60
2022-11-12T20:38:44.388Z,19.52
2022-11-12T20:41:16.759Z,22.10
2022-11-12T20:43:43.543Z,21.63
2022-11-12T20:46:12.723Z,22.40
2022-11-12T20:48:43.260Z,22.00
2022-11-12T20:51:23.666Z,25.20
2022-11-12T20:53:58.956Z,20.73
2022-11-12T20:56:29.001Z,17.75
2022-11-12T20:58:55.980Z,20.88
2022-11-12T21:01:24.584Z,20.52
2022-11-12T21:03:51.926Z,18.33
2022-11-12T21:06:23.406Z,11.18
2022-11-12T21:08:50.892Z,18.97
2022-11-12T21:11:20.806Z,15.07
2022-11-12T21:13:47.722Z,15.02
2022-11-12T21:16:15.211Z,13.63
2022-11-12T21:18:43.095Z,13.68
2022-11-12T21:21:16.890Z,12.73
2022-11-12T21:23:44.888Z,17.17
2022-11-12T21:26:15.998Z,14.17
2022-11-12T21:28:50.597Z,17.27
2022-11-12T21:31:29.684Z,14.05
2022-11-12T21:34:03.545Z,18.50
2022-11-12T21:36:32.178Z,14.90
2022-11-12T21:38:59.064Z,16.80
2022-11-12T21:41:28.316Z,19.63
2022-11-12T21:43:55.502Z,15.88
2022-11-12T21:46:25.936Z,20.00
2022-11-12T21:48:55.407Z,18.70
2022-11-12T21:51:30.064Z,21.33
2022-11-12T21:54:02.606Z,18.77
2022-11-12T21:56:30.395Z,21.83
2022-11-12T21:59:00.717Z,20.77
2022-11-12T22:01:31.880Z,21.53
2022-11-12T22:04:01.993Z,21.10
2022-11-12T22:08:57.594Z,22.90
2022-11-12T22:11:25.512Z,20.90
2022-11-12T22:13:52.266Z,19.13
2022-11-12T22:16:21.766Z,22.67
2022-11-12T22:18:51.443Z,21.40
2022-11-12T22:21:24.151Z,19.52
2022-11-12T22:23:51.076Z,19.17
2022-11-12T22:26:22.895Z,21.07
2022-11-12T22:28:49.799Z,14.87
2022-11-12T22:31:19.421Z,23.50
2022-11-12T22:33:46.319Z,21.08
2022-11-12T22:36:15.956Z,17.53
2022-11-12T22:38:45.095Z,17.98
2022-11-12T22:41:17.368Z,23.85
2022-11-12T22:43:47.412Z,16.27
2022-11-12T22:48:42.534Z,18.67
2022-11-12T22:51:18.015Z,18.07
2022-11-12T22:53:45.203Z,20.10
2022-11-12T22:56:15.642Z,22.90
2022-11-12T22:58:44.651Z,13.47
2022-11-12T23:01:23.130Z,15.15
2022-11-12T23:03:52.172Z,20.63
2022-11-12T23:06:19.295Z,17.33
2022-11-12T23:08:46.386Z,21.57
2022-11-12T23:11:15.651Z,19.73
2022-11-12T23:13:43.120Z,15.45
2022-11-12T23:16:19.729Z,17.70
2022-11-12T23:18:47.062Z,20.50
2022-11-12T23:21:25.624Z,19.10
2022-11-12T23:23:52.624Z,17.87
2022-11-12T23:26:25.119Z,21.47
2022-11-12T23:28:52.287Z,17.37
2022-11-12T23:31:22.271Z,15.90
2022-11-12T23:33:51.434Z,13.65
2022-11-12T23:36:18.839Z,19.20
2022-11-12T23:38:45.930Z,15.40
2022-11-12T23:41:15.112Z,15.10
2022-11-12T23:43:42.155Z,18.03
2022-11-12T23:46:09.228Z,17.10
2022-11-12T23:48:36.150Z,13.63
2022-11-12T23:51:11.180Z,17.50
2022-11-12T23:53:39.150Z,13.23
2022-11-12T23:56:07.506Z,11.73
2022-11-12T23:58:34.218Z,17.70
